createdAt,value
2022-12-06T00:01:29.200Z,4.15
2022-12-06T00:03:58.559Z,5.85
2022-12-06T00:06:29.606Z,8.10
2022-12-06T00:08:58.946Z,9.98
2022-12-06T00:11:29.298Z,10.50
2022-12-06T00:14:00.378Z,10.10
2022-12-06T00:16:29.241Z,12.90
2022-12-06T00:18:58.586Z,9.48
2022-12-06T00:21:29.242Z,10.68
2022-12-06T00:23:59.207Z,10.85
2022-12-06T00:26:27.785Z,11.40
2022-12-06T00:28:59.266Z,15.27
2022-12-06T00:31:29.867Z,12.13
2022-12-06T00:33:58.509Z,13.90
2022-12-06T00:36:29.019Z,11.05
2022-12-06T00:38:57.525Z,12.13
2022-12-06T00:41:26.507Z,7.45
2022-12-06T00:43:55.194Z,5.93
2022-12-06T00:46:28.240Z,6.25
2022-12-06T00:48:57.669Z,6.95
2022-12-06T00:51:27.726Z,4.70
2022-12-06T00:53:55.925Z,3.72
2022-12-06T00:56:24.489Z,4.70
2022-12-06T00:58:52.859Z,8.20
2022-12-06T01:01:22.752Z,4.55
2022-12-06T01:03:55.018Z,4.28
2022-12-06T01:06:26.217Z,6.40
2022-12-06T01:08:55.192Z,4.05
2022-12-06T01:11:23.801Z,7.85
2022-12-06T01:13:52.554Z,9.18
2022-12-06T01:16:23.226Z,6.30
2022-12-06T01:18:56.031Z,5.03
2022-12-06T01:21:25.432Z,4.78
2022-12-06T01:23:54.448Z,7.20
2022-12-06T01:26:25.995Z,5.15
2022-12-06T01:28:54.457Z,5.47
2022-12-06T01:31:22.858Z,4.13
2022-12-06T01:33:51.089Z,5.05
2022-12-06T01:36:22.540Z,3.72
2022-12-06T01:38:52.058Z,9.75
2022-12-06T01:41:21.488Z,5.68
2022-12-06T01:43:50.373Z,4.40
2022-12-06T01:46:33.190Z,3.60
2022-12-06T01:49:19.485Z,3.88
2022-12-06T01:51:52.180Z,3.85
2022-12-06T01:54:22.020Z,5.45
2022-12-06T01:56:51.781Z,6.75
2022-12-06T01:59:21.107Z,7.00
2022-12-06T02:01:49.778Z,6.80
2022-12-06T02:04:19.202Z,3.20
2022-12-06T02:06:49.083Z,4.20
2022-12-06T02:09:18.554Z,6.13
2022-12-06T02:11:47.531Z,7.85
2022-12-06T02:14:19.189Z,5.22
2022-12-06T02:17:02.461Z,4.95
2022-12-06T02:20:18.886Z,5.00
2022-12-06T02:23:31.240Z,9.25
2022-12-06T02:26:23.174Z,8.98
2022-12-06T02:29:25.971Z,13.00
2022-12-06T02:31:59.447Z,4.63
2022-12-06T02:34:35.081Z,5.38
2022-12-06T02:37:08.611Z,5.35
2022-12-06T02:39:41.253Z,4.40
2022-12-06T02:42:16.871Z,3.90
2022-12-06T02:44:48.342Z,3.53
2022-12-06T02:47:21.395Z,4.32
2022-12-06T02:49:54.677Z,7.25
2022-12-06T02:52:25.405Z,6.15
2022-12-06T02:54:56.703Z,6.95
2022-12-06T02:57:40.239Z,5.00
2022-12-06T03:00:30.440Z,7.40
2022-12-06T03:03:06.712Z,3.92
2022-12-06T03:05:41.267Z,5.63
2022-12-06T03:08:18.697Z,3.72
2022-12-06T03:10:54.088Z,4.97
2022-12-06T03:13:32.246Z,5.28
2022-12-06T03:16:08.253Z,6.18
2022-12-06T03:18:43.961Z,4.38
2022-12-06T03:21:14.238Z,5.68
2022-12-06T03:23:45.948Z,4.72
2022-12-06T03:26:18.065Z,4.40
2022-12-06T03:28:48.140Z,4.93
2022-12-06T03:31:16.961Z,3.42
2022-12-06T03:33:54.231Z,6.18
2022-12-06T03:36:24.357Z,3.63
2022-12-06T03:38:56.147Z,5.20
2022-12-06T03:41:28.186Z,3.45
2022-12-06T03:43:56.694Z,4.75
2022-12-06T03:46:28.929Z,3.92
2022-12-06T03:49:02.806Z,4.65
2022-12-06T03:51:33.588Z,3.15
2022-12-06T03:54:06.608Z,5.07
2022-12-06T03:56:36.886Z,4.43
2022-12-06T03:59:05.222Z,3.72
2022-12-06T04:01:33.514Z,4.28
2022-12-06T04:04:03.277Z,3.95
2022-12-06T04:06:31.543Z,3.33
2022-12-06T04:09:19.907Z,3.13
2022-12-06T04:11:48.327Z,3.88
2022-12-06T04:14:16.505Z,4.18
2022-12-06T04:17:01.896Z,4.82
2022-12-06T04:19:31.605Z,4.78
2022-12-06T04:22:31.255Z,4.82
2022-12-06T04:24:59.306Z,7.45
2022-12-06T04:27:43.951Z,4.85
2022-12-06T04:30:30.027Z,7.93
2022-12-06T04:33:15.426Z,5.82
2022-12-06T04:36:02.227Z,7.60
2022-12-06T04:38:42.457Z,6.25
2022-12-06T04:41:10.692Z,7.82
2022-12-06T04:43:44.016Z,5.78
2022-12-06T04:46:12.743Z,6.50
2022-12-06T04:48:41.856Z,6.00
2022-12-06T04:51:13.252Z,13.63
2022-12-06T04:53:41.476Z,6.38
2022-12-06T04:56:09.802Z,9.93
2022-12-06T04:58:37.843Z,9.93
2022-12-06T05:01:05.915Z,5.97
2022-12-06T05:03:34.019Z,6.10
2022-12-06T05:06:02.173Z,6.65
2022-12-06T05:08:31.723Z,12.63
2022-12-06T05:10:59.836Z,6.47
2022-12-06T05:13:27.789Z,7.22
2022-12-06T05:15:58.086Z,11.10
2022-12-06T05:18:27.291Z,9.10
2022-12-06T05:21:03.257Z,12.57
2022-12-06T05:23:32.756Z,9.75
2022-12-06T05:26:01.666Z,11.32
2022-12-06T05:28:30.745Z,11.55
2022-12-06T05:30:59.163Z,6.32
2022-12-06T05:33:27.322Z,9.30
2022-12-06T05:35:56.830Z,5.32
2022-12-06T05:38:25.271Z,6.88
2022-12-06T05:40:54.708Z,7.50
2022-12-06T05:43:22.689Z,6.75
2022-12-06T05:45:53.724Z,7.07
2022-12-06T05:48:21.770Z,9.23
2022-12-06T05:50:50.633Z,8.57
2022-12-06T05:53:19.130Z,8.80
2022-12-06T05:55:47.508Z,11.18
2022-12-06T05:58:17.111Z,12.57
2022-12-06T06:00:47.714Z,7.53
2022-12-06T06:03:16.177Z,10.20
2022-12-06T06:05:50.001Z,13.55
2022-12-06T06:08:18.655Z,8.48
2022-12-06T06:10:46.916Z,7.97
2022-12-06T06:13:16.350Z,12.25
2022-12-06T06:15:44.566Z,14.45
2022-12-06T06:18:12.697Z,10.88
2022-12-06T06:20:40.811Z,12.50
2022-12-06T06:23:08.900Z,10.32
2022-12-06T06:25:37.229Z,11.80
2022-12-06T06:28:05.433Z,12.07
2022-12-06T06:30:34.804Z,12.40
2022-12-06T06:33:02.802Z,13.38
2022-12-06T06:35:30.910Z,12.77
2022-12-06T06:37:58.901Z,14.38
2022-12-06T06:40:27.656Z,14.27
2022-12-06T06:42:56.317Z,12.25
2022-12-06T06:45:28.679Z,14.88
2022-12-06T06:47:59.263Z,10.50
2022-12-06T06:50:28.139Z,10.30
2022-12-06T06:53:05.221Z,11.73
2022-12-06T06:55:36.260Z,14.38
2022-12-06T06:58:05.644Z,13.88
2022-12-06T07:00:35.411Z,19.48
2022-12-06T07:03:07.812Z,13.95
2022-12-06T07:05:37.869Z,16.55
2022-12-06T07:08:07.917Z,12.73
2022-12-06T07:10:39.872Z,13.52
2022-12-06T07:13:07.928Z,13.50
2022-12-06T07:15:37.514Z,12.85
2022-12-06T07:18:07.073Z,16.38
2022-12-06T07:20:35.114Z,21.95
2022-12-06T07:23:03.141Z,28.38
2022-12-06T07:25:32.088Z,18.30
2022-12-06T07:28:00.080Z,21.23
2022-12-06T07:30:28.987Z,18.30
2022-12-06T07:33:00.626Z,18.08
2022-12-06T07:35:55.708Z,17.85
2022-12-06T07:38:19.144Z,18.60
2022-12-06T07:41:03.835Z,16.88
2022-12-06T07:43:51.597Z,18.10
2022-12-06T07:46:22.879Z,17.45
2022-12-06T07:48:54.195Z,20.17
2022-12-06T07:51:23.892Z,31.65
2022-12-06T07:53:52.266Z,54.80
2022-12-06T07:56:20.791Z,45.25
2022-12-06T07:58:49.025Z,52.90
2022-12-06T08:01:22.197Z,46.70
2022-12-06T08:04:09.254Z,40.95
2022-12-06T08:06:40.451Z,25.65
2022-12-06T08:09:09.907Z,21.67
2022-12-06T08:11:47.358Z,22.40
2022-12-06T08:14:15.921Z,31.55
2022-12-06T08:16:47.520Z,19.42
2022-12-06T08:19:21.594Z,25.20
2022-12-06T08:21:57.679Z,29.60
2022-12-06T08:24:25.770Z,25.83
2022-12-06T08:26:53.831Z,21.10
2022-12-06T08:29:22.092Z,30.15
2022-12-06T08:31:50.337Z,21.80
2022-12-06T08:34:19.607Z,31.30
2022-12-06T08:36:47.735Z,23.63
2022-12-06T08:39:17.507Z,19.45
2022-12-06T08:41:58.731Z,21.35
2022-12-06T08:44:28.662Z,22.48
2022-12-06T08:46:57.629Z,28.52
2022-12-06T08:49:27.525Z,24.45
2022-12-06T08:51:56.863Z,20.13
2022-12-06T08:54:35.286Z,21.90
2022-12-06T08:57:03.505Z,18.75
2022-12-06T08:59:31.748Z,16.58
2022-12-06T09:02:00.008Z,22.75
2022-12-06T09:04:29.155Z,25.20
2022-12-06T09:06:57.356Z,23.45
2022-12-06T09:09:27.124Z,20.77
2022-12-06T09:11:56.650Z,23.33
2022-12-06T09:14:24.953Z,68.60
2022-12-06T09:16:53.232Z,43.38
2022-12-06T09:19:21.892Z,24.05
2022-12-06T09:21:50.397Z,19.40
2022-12-06T09:24:19.647Z,21.88
2022-12-06T09:26:49.738Z,13.75
2022-12-06T09:29:19.017Z,17.05
2022-12-06T09:31:48.192Z,21.00
2022-12-06T09:34:16.979Z,20.67
2022-12-06T09:36:49.943Z,21.55
2022-12-06T09:39:22.581Z,26.53
2022-12-06T09:42:36.637Z,24.17
2022-12-06T09:45:25.861Z,29.20
2022-12-06T09:48:27.443Z,21.05
2022-12-06T09:51:11.966Z,57.40
2022-12-06T09:53:54.845Z,63.13
2022-12-06T09:56:27.819Z,25.15
2022-12-06T09:59:09.133Z,22.58
2022-12-06T10:01:49.609Z,20.60
2022-12-06T10:04:39.612Z,18.83
2022-12-06T10:07:16.310Z,19.92
2022-12-06T10:09:57.347Z,18.42
2022-12-06T10:12:46.345Z,15.15
2022-12-06T10:15:28.305Z,21.63
2022-12-06T10:18:10.123Z,18.85
2022-12-06T10:20:46.392Z,17.02
2022-12-06T10:23:39.112Z,25.50
2022-12-06T10:26:15.682Z,12.80
2022-12-06T10:28:49.229Z,14.88
2022-12-06T10:31:24.616Z,13.40
2022-12-06T10:33:58.559Z,18.25
2022-12-06T10:39:11.301Z,16.17
2022-12-06T10:41:46.219Z,15.93
2022-12-06T10:44:19.973Z,15.55
2022-12-06T10:47:04.914Z,16.05
2022-12-06T10:49:41.859Z,18.70
2022-12-06T10:52:24.397Z,15.60
2022-12-06T10:55:03.595Z,18.55
2022-12-06T10:57:37.625Z,20.40
2022-12-06T11:00:13.408Z,18.10
2022-12-06T11:02:52.268Z,19.92
2022-12-06T11:05:25.884Z,19.98
2022-12-06T11:08:00.540Z,14.55
2022-12-06T11:10:32.119Z,17.98
2022-12-06T11:13:04.807Z,27.90
2022-12-06T11:15:36.932Z,22.63
2022-12-06T11:18:12.841Z,22.83
2022-12-06T11:20:45.677Z,17.88
2022-12-06T11:23:23.843Z,15.97
2022-12-06T11:26:07.864Z,60.58
2022-12-06T11:28:38.793Z,27.15
2022-12-06T11:31:20.743Z,17.92
2022-12-06T11:33:50.223Z,19.33
2022-12-06T11:36:18.330Z,21.55
2022-12-06T11:38:46.466Z,18.95
2022-12-06T11:41:22.450Z,33.83
2022-12-06T11:43:51.596Z,22.70
2022-12-06T11:46:20.025Z,22.88
2022-12-06T11:48:49.750Z,19.65
2022-12-06T11:51:20.093Z,26.42
2022-12-06T11:54:03.868Z,21.33
2022-12-06T11:56:35.889Z,21.63
2022-12-06T11:59:25.964Z,20.15
2022-12-06T12:01:56.080Z,24.45
2022-12-06T12:04:31.433Z,24.02
2022-12-06T12:07:03.287Z,18.90
2022-12-06T12:09:34.120Z,19.75
2022-12-06T12:12:06.436Z,20.95
2022-12-06T12:14:39.800Z,20.52
2022-12-06T12:17:18.554Z,25.33
2022-12-06T12:19:53.222Z,19.02
2022-12-06T12:22:29.259Z,24.65
2022-12-06T12:27:49.648Z,23.85
2022-12-06T12:30:24.693Z,20.00
2022-12-06T12:33:09.426Z,23.95
2022-12-06T12:35:40.849Z,21.60
2022-12-06T12:38:18.036Z,20.23
2022-12-06T12:40:48.806Z,15.60
2022-12-06T12:43:21.332Z,19.20
2022-12-06T12:46:18.895Z,22.63
2022-12-06T12:48:48.883Z,18.60
2022-12-06T12:51:29.680Z,21.67
2022-12-06T12:54:00.047Z,21.42
2022-12-06T12:56:29.341Z,21.15
2022-12-06T12:58:58.343Z,17.05
2022-12-06T13:01:37.815Z,21.55
2022-12-06T13:04:16.428Z,26.52
2022-12-06T13:06:50.744Z,25.48
2022-12-06T13:09:25.402Z,20.30
2022-12-06T13:11:57.889Z,27.75
2022-12-06T13:14:28.147Z,20.35
2022-12-06T13:16:59.123Z,21.67
2022-12-06T13:19:34.871Z,22.83
2022-12-06T13:22:06.109Z,27.45
2022-12-06T13:24:37.526Z,27.48
2022-12-06T13:27:09.305Z,27.48
2022-12-06T13:29:41.330Z,22.60
2022-12-06T13:32:16.149Z,28.55
2022-12-06T13:34:50.432Z,25.90
2022-12-06T13:37:31.547Z,29.05
2022-12-06T13:39:59.981Z,22.75
2022-12-06T13:42:45.627Z,22.13
2022-12-06T13:45:40.708Z,31.70
2022-12-06T13:48:36.411Z,23.83
2022-12-06T13:51:06.926Z,25.85
2022-12-06T13:54:15.526Z,20.65
2022-12-06T13:56:45.047Z,23.55
2022-12-06T13:59:41.604Z,17.35
2022-12-06T14:02:52.280Z,15.07
2022-12-06T14:08:32.057Z,28.02
2022-12-06T14:11:18.021Z,24.80
2022-12-06T14:13:49.299Z,29.27
2022-12-06T14:16:23.603Z,25.45
2022-12-06T14:18:52.342Z,20.25
2022-12-06T14:21:27.861Z,20.88
2022-12-06T14:23:56.228Z,21.67
2022-12-06T14:26:27.279Z,24.65
2022-12-06T14:28:58.549Z,23.80
2022-12-06T14:31:29.517Z,21.70
2022-12-06T14:33:58.334Z,24.20
2022-12-06T14:36:30.472Z,19.55
2022-12-06T14:39:01.919Z,23.77
2022-12-06T14:41:50.618Z,23.70
2022-12-06T14:44:21.718Z,21.73
2022-12-06T14:46:51.025Z,28.02
2022-12-06T14:49:38.697Z,30.42
2022-12-06T14:52:21.294Z,23.15
2022-12-06T14:54:50.121Z,19.73
2022-12-06T14:57:26.604Z,15.30
2022-12-06T15:00:15.822Z,24.63
2022-12-06T15:03:25.656Z,21.65
2022-12-06T15:06:11.665Z,23.08
2022-12-06T15:08:40.782Z,22.85
2022-12-06T15:11:43.655Z,18.33
2022-12-06T15:14:13.912Z,19.63
2022-12-06T15:16:45.130Z,19.17
2022-12-06T15:19:15.141Z,17.33
2022-12-06T15:21:43.297Z,20.13
2022-12-06T15:24:18.753Z,19.33
2022-12-06T15:26:47.117Z,19.38
2022-12-06T15:29:15.492Z,20.02
2022-12-06T15:31:49.722Z,17.27
2022-12-06T15:34:25.335Z,18.85
2022-12-06T15:37:15.200Z,19.35
2022-12-06T15:39:42.753Z,20.73
2022-12-06T15:42:17.901Z,26.35
2022-12-06T15:44:49.534Z,22.73
2022-12-06T15:47:20.639Z,25.30
2022-12-06T15:49:50.976Z,25.40
2022-12-06T15:52:23.210Z,20.77
2022-12-06T15:54:51.691Z,18.08
2022-12-06T15:57:19.785Z,15.50
2022-12-06T15:59:47.785Z,31.63
2022-12-06T16:02:17.451Z,25.65
2022-12-06T16:04:48.552Z,17.10
2022-12-06T16:07:19.253Z,28.33
2022-12-06T16:09:47.504Z,20.25
2022-12-06T16:12:15.587Z,21.08
2022-12-06T16:14:43.631Z,16.55
2022-12-06T16:17:12.055Z,22.63
2022-12-06T16:19:57.504Z,166.60
2022-12-06T16:22:40.806Z,129.18
2022-12-06T16:25:09.599Z,93.95
2022-12-06T16:27:37.633Z,75.53
2022-12-06T16:30:06.954Z,50.67
2022-12-06T16:32:34.960Z,24.50
2022-12-06T16:35:03.201Z,23.50
2022-12-06T16:37:32.859Z,29.63
2022-12-06T16:40:00.845Z,21.70
2022-12-06T16:42:28.920Z,21.30
2022-12-06T16:44:56.954Z,23.95
2022-12-06T16:49:52.480Z,22.92
2022-12-06T16:52:21.044Z,19.80
2022-12-06T16:54:50.641Z,24.08
2022-12-06T16:57:19.692Z,25.55
2022-12-06T16:59:47.856Z,28.02
2022-12-06T17:02:27.076Z,30.98
2022-12-06T17:04:55.616Z,34.03
2022-12-06T17:07:23.872Z,38.15
2022-12-06T17:09:53.329Z,34.15
2022-12-06T17:12:21.815Z,41.78
2022-12-06T17:14:49.855Z,38.58
2022-12-06T17:17:20.307Z,27.17
2022-12-06T17:19:49.430Z,30.08
2022-12-06T17:22:19.011Z,30.73
2022-12-06T17:24:47.121Z,31.02
2022-12-06T17:27:16.989Z,33.38
2022-12-06T17:29:45.599Z,29.40
2022-12-06T17:32:14.266Z,30.63
2022-12-06T17:34:42.316Z,27.85
2022-12-06T17:37:10.609Z,23.88
2022-12-06T17:39:38.699Z,26.45
2022-12-06T17:42:24.148Z,30.92
2022-12-06T17:44:53.618Z,27.60
2022-12-06T17:47:21.914Z,35.67
2022-12-06T17:49:49.928Z,38.88
2022-12-06T17:52:18.278Z,32.63
2022-12-06T17:54:49.058Z,29.55
2022-12-06T17:57:18.852Z,30.00
2022-12-06T17:59:48.707Z,30.02
2022-12-06T18:02:20.014Z,30.75
2022-12-06T18:04:48.720Z,30.77
2022-12-06T18:07:17.974Z,31.95
2022-12-06T18:09:46.369Z,28.65
2022-12-06T18:12:15.943Z,31.85
2022-12-06T18:14:44.030Z,26.50
2022-12-06T18:17:12.439Z,28.02
2022-12-06T18:19:41.996Z,28.90
2022-12-06T18:22:11.127Z,28.85
2022-12-06T18:24:39.706Z,27.80
2022-12-06T18:27:09.508Z,30.80
2022-12-06T18:29:38.365Z,28.40
2022-12-06T18:32:07.950Z,30.75
2022-12-06T18:34:37.237Z,29.98
2022-12-06T18:37:07.630Z,28.63
2022-12-06T18:39:36.661Z,31.83
2022-12-06T18:42:05.634Z,28.98
2022-12-06T18:44:34.342Z,29.17
2022-12-06T18:47:04.210Z,36.13
2022-12-06T18:49:32.990Z,30.75
2022-12-06T18:52:01.997Z,29.73
2022-12-06T18:54:32.437Z,28.92
2022-12-06T18:57:01.321Z,31.35
2022-12-06T18:59:31.083Z,28.15
2022-12-06T19:01:59.276Z,34.38
2022-12-06T19:04:27.354Z,31.33
2022-12-06T19:06:55.564Z,29.30
2022-12-06T19:09:24.014Z,36.45
2022-12-06T19:11:53.636Z,28.30
2022-12-06T19:14:23.222Z,29.90
2022-12-06T19:16:52.809Z,27.30
2022-12-06T19:19:23.033Z,30.52
2022-12-06T19:21:52.940Z,38.40
2022-12-06T19:24:22.764Z,25.00
2022-12-06T19:26:58.375Z,31.35
2022-12-06T19:29:36.472Z,29.95
2022-12-06T19:32:05.686Z,37.17
2022-12-06T19:34:33.793Z,37.42
2022-12-06T19:37:02.803Z,29.85
2022-12-06T19:39:31.119Z,23.70
2022-12-06T19:42:17.908Z,29.73
2022-12-06T19:44:45.978Z,30.48
2022-12-06T19:47:14.406Z,30.13
2022-12-06T19:49:42.611Z,23.67
2022-12-06T19:52:10.687Z,29.23
2022-12-06T19:54:40.209Z,33.80
2022-12-06T19:57:09.727Z,31.02
2022-12-06T19:59:40.115Z,28.98
2022-12-06T20:02:11.253Z,27.92
2022-12-06T20:04:41.126Z,26.30
2022-12-06T20:07:10.140Z,24.40
2022-12-06T20:09:38.312Z,27.05
2022-12-06T20:12:07.671Z,23.83
2022-12-06T20:14:40.835Z,26.80
2022-12-06T20:17:10.989Z,22.00
2022-12-06T20:19:39.582Z,27.17
2022-12-06T20:22:07.727Z,23.20
2022-12-06T20:24:35.753Z,29.35
2022-12-06T20:27:05.042Z,28.25
2022-12-06T20:29:33.823Z,22.52
2022-12-06T20:32:03.756Z,29.20
2022-12-06T20:34:34.185Z,25.67
2022-12-06T20:37:04.612Z,24.60
2022-12-06T20:39:35.455Z,23.98
2022-12-06T20:42:05.597Z,30.85
2022-12-06T20:44:34.103Z,32.42
2022-12-06T20:47:03.673Z,30.17
2022-12-06T20:49:31.745Z,31.95
2022-12-06T20:52:02.271Z,26.38
2022-12-06T20:54:31.332Z,27.02
2022-12-06T20:56:59.410Z,24.73
2022-12-06T20:59:29.485Z,21.63
2022-12-06T21:01:58.921Z,24.02
2022-12-06T21:04:28.867Z,25.83
2022-12-06T21:06:57.002Z,27.27
2022-12-06T21:09:25.341Z,31.55
2022-12-06T21:11:53.373Z,95.07
2022-12-06T21:14:21.489Z,112.50
2022-12-06T21:16:49.724Z,71.75
2022-12-06T21:19:20.009Z,108.10
2022-12-06T21:21:51.488Z,74.68
2022-12-06T21:24:21.616Z,25.25
2022-12-06T21:26:50.230Z,23.27
2022-12-06T21:29:21.656Z,25.45
2022-12-06T21:31:52.389Z,26.30
2022-12-06T21:34:20.475Z,17.98
2022-12-06T21:36:50.280Z,24.27
2022-12-06T21:39:18.595Z,23.50
2022-12-06T21:41:46.743Z,24.23
2022-12-06T21:44:14.771Z,21.58
2022-12-06T21:46:42.822Z,26.02
2022-12-06T21:49:11.898Z,26.45
2022-12-06T21:51:39.989Z,31.20
2022-12-06T21:54:09.414Z,25.67
2022-12-06T21:56:38.364Z,25.77
2022-12-06T21:59:06.397Z,22.85
2022-12-06T22:01:34.489Z,22.45
2022-12-06T22:04:04.544Z,21.65
2022-12-06T22:06:33.692Z,25.08
2022-12-06T22:09:04.299Z,27.38
2022-12-06T22:11:34.879Z,29.67
2022-12-06T22:14:04.876Z,22.63
2022-12-06T22:16:33.157Z,29.10
2022-12-06T22:19:01.241Z,24.60
2022-12-06T22:21:32.422Z,23.15
2022-12-06T22:24:00.917Z,24.35
2022-12-06T22:26:31.579Z,26.38
2022-12-06T22:29:01.795Z,27.08
2022-12-06T22:31:31.370Z,31.65
2022-12-06T22:34:00.624Z,25.48
2022-12-06T22:36:29.604Z,24.13
2022-12-06T22:38:59.197Z,26.73
2022-12-06T22:41:33.779Z,36.47
2022-12-06T22:44:08.522Z,29.15
2022-12-06T22:46:38.290Z,21.90
2022-12-06T22:49:07.892Z,24.85
2022-12-06T22:51:38.487Z,29.15
2022-12-06T22:54:11.340Z,31.58
2022-12-06T22:56:42.455Z,35.65
2022-12-06T22:59:11.914Z,36.38
2022-12-06T23:01:42.565Z,29.45
2022-12-06T23:04:11.955Z,39.03
2022-12-06T23:06:40.243Z,40.17
2022-12-06T23:09:09.662Z,40.92
2022-12-06T23:11:42.299Z,44.50
2022-12-06T23:14:12.616Z,47.50
2022-12-06T23:16:41.618Z,44.83
2022-12-06T23:19:14.148Z,43.67
2022-12-06T23:21:42.665Z,41.03
2022-12-06T23:24:13.885Z,36.78
2022-12-06T23:26:44.286Z,39.10
2022-12-06T23:29:15.062Z,44.20
2022-12-06T23:31:45.243Z,41.38
2022-12-06T23:34:15.765Z,48.97
2022-12-06T23:36:44.509Z,43.45
2022-12-06T23:39:14.362Z,37.83
2022-12-06T23:41:42.669Z,33.28
2022-12-06T23:44:12.990Z,33.22
2022-12-06T23:46:46.784Z,43.58
2022-12-06T23:51:46.911Z,42.53
2022-12-06T23:54:16.711Z,37.63
2022-12-06T23:56:45.025Z,42.80
2022-12-06T23:59:15.478Z,41.40
